sensor_id;sensor_type;location;lat;lon;timestamp;P1;durP1;ratioP1;P2;durP2;ratioP2
73678;SDS011;61978;52.742;16.962;2022-08-19T00:01:45;15.53;;;10.28;;
73678;SDS011;61978;52.742;16.962;2022-08-19T00:04:15;16.12;;;12.43;;
73678;SDS011;61978;52.742;16.962;2022-08-19T00:06:44;18.27;;;11.35;;
73678;SDS011;61978;52.742;16.962;2022-08-19T00:09:15;14.60;;;10.50;;
73678;SDS011;61978;52.742;16.962;2022-08-19T00:11:46;23.40;;;11.97;;
73678;SDS011;61978;52.742;16.962;2022-08-19T00:14:14;17.25;;;11.57;;
73678;SDS011;61978;52.742;16.962;2022-08-19T00:16:44;16.17;;;10.72;;
73678;SDS011;61978;52.742;16.962;2022-08-19T00:19:14;14.50;;;10.78;;
73678;SDS011;61978;52.742;16.962;2022-08-19T00:21:43;12.05;;;10.68;;
73678;SDS011;61978;52.742;16.962;2022-08-19T00:24:11;14.05;;;10.90;;
73678;SDS011;61978;52.742;16.962;2022-08-19T00:26:40;18.48;;;10.65;;
73678;SDS011;61978;52.742;16.962;2022-08-19T00:29:09;19.12;;;11.83;;
73678;SDS011;61978;52.742;16.962;2022-08-19T00:31:40;14.05;;;11.40;;
73678;SDS011;61978;52.742;16.962;2022-08-19T00:34:10;15.53;;;10.75;;
73678;SDS011;61978;52.742;16.962;2022-08-19T00:36:38;16.10;;;11.78;;
73678;SDS011;61978;52.742;16.962;2022-08-19T00:39:08;20.57;;;10.85;;
73678;SDS011;61978;52.742;16.962;2022-08-19T00:41:36;13.05;;;11.40;;
73678;SDS011;61978;52.742;16.962;2022-08-19T00:44:05;13.83;;;10.95;;
73678;SDS011;61978;52.742;16.962;2022-08-19T00:46:36;15.40;;;11.85;;
73678;SDS011;61978;52.742;16.962;2022-08-19T00:49:13;16.05;;;11.55;;
73678;SDS011;61978;52.742;16.962;2022-08-19T00:51:41;20.45;;;12.45;;
73678;SDS011;61978;52.742;16.962;2022-08-19T00:54:13;16.52;;;12.13;;
73678;SDS011;61978;52.742;16.962;2022-08-19T00:56:41;16.15;;;12.03;;
73678;SDS011;61978;52.742;16.962;2022-08-19T00:59:11;19.42;;;11.65;;
73678;SDS011;61978;52.742;16.962;2022-08-19T01:01:38;18.35;;;11.70;;
73678;SDS011;61978;52.742;16.962;2022-08-19T01:04:09;19.70;;;12.18;;
73678;SDS011;61978;52.742;16.962;2022-08-19T01:06:38;19.15;;;12.85;;
73678;SDS011;61978;52.742;16.962;2022-08-19T01:09:07;19.37;;;14.15;;
73678;SDS011;61978;52.742;16.962;2022-08-19T01:11:38;25.80;;;12.88;;
73678;SDS011;61978;52.742;16.962;2022-08-19T01:14:07;16.05;;;12.07;;
73678;SDS011;61978;52.742;16.962;2022-08-19T01:16:37;18.25;;;12.03;;
73678;SDS011;61978;52.742;16.962;2022-08-19T01:19:15;18.77;;;12.18;;
73678;SDS011;61978;52.742;16.962;2022-08-19T01:21:52;18.07;;;12.10;;
73678;SDS011;61978;52.742;16.962;2022-08-19T01:24:27;21.10;;;11.85;;
73678;SDS011;61978;52.742;16.962;2022-08-19T01:26:55;16.97;;;12.10;;
73678;SDS011;61978;52.742;16.962;2022-08-19T01:29:22;18.87;;;12.45;;
73678;SDS011;61978;52.742;16.962;2022-08-19T01:31:51;15.08;;;12.20;;
73678;SDS011;61978;52.742;16.962;2022-08-19T01:34:19;18.60;;;12.35;;
73678;SDS011;61978;52.742;16.962;2022-08-19T01:36:47;18.25;;;11.78;;
73678;SDS011;61978;52.742;16.962;2022-08-19T01:39:19;22.52;;;12.07;;
73678;SDS011;61978;52.742;16.962;2022-08-19T01:41:48;19.23;;;12.68;;
73678;SDS011;61978;52.742;16.962;2022-08-19T01:44:15;18.42;;;12.82;;
73678;SDS011;61978;52.742;16.962;2022-08-19T01:46:47;17.17;;;13.00;;
73678;SDS011;61978;52.742;16.962;2022-08-19T01:49:15;19.60;;;12.78;;
73678;SDS011;61978;52.742;16.962;2022-08-19T01:51:45;16.65;;;12.20;;
73678;SDS011;61978;52.742;16.962;2022-08-19T01:54:16;18.55;;;13.20;;
73678;SDS011;61978;52.742;16.962;2022-08-19T01:56:45;17.00;;;14.18;;
73678;SDS011;61978;52.742;16.962;2022-08-19T01:59:13;18.98;;;13.80;;
73678;SDS011;61978;52.742;16.962;2022-08-19T02:01:42;18.40;;;13.20;;
73678;SDS011;61978;52.742;16.962;2022-08-19T02:04:09;14.93;;;13.28;;
73678;SDS011;61978;52.742;16.962;2022-08-19T02:06:36;22.22;;;13.32;;
73678;SDS011;61978;52.742;16.962;2022-08-19T02:09:05;18.67;;;13.28;;
73678;SDS011;61978;52.742;16.962;2022-08-19T02:11:34;18.52;;;14.38;;
73678;SDS011;61978;52.742;16.962;2022-08-19T02:14:04;19.67;;;13.95;;
73678;SDS011;61978;52.742;16.962;2022-08-19T02:16:34;18.95;;;13.32;;
73678;SDS011;61978;52.742;16.962;2022-08-19T02:19:03;24.80;;;14.70;;
73678;SDS011;61978;52.742;16.962;2022-08-19T02:21:31;17.92;;;14.90;;
73678;SDS011;61978;52.742;16.962;2022-08-19T02:23:59;17.23;;;14.20;;
73678;SDS011;61978;52.742;16.962;2022-08-19T02:26:26;19.90;;;14.60;;
73678;SDS011;61978;52.742;16.962;2022-08-19T02:28:53;20.77;;;15.63;;
73678;SDS011;61978;52.742;16.962;2022-08-19T02:31:22;17.73;;;14.60;;
73678;SDS011;61978;52.742;16.962;2022-08-19T02:33:51;21.65;;;14.75;;
73678;SDS011;61978;52.742;16.962;2022-08-19T02:36:19;16.50;;;14.65;;
73678;SDS011;61978;52.742;16.962;2022-08-19T02:38:48;21.12;;;15.18;;
73678;SDS011;61978;52.742;16.962;2022-08-19T02:41:20;25.57;;;14.83;;
73678;SDS011;61978;52.742;16.962;2022-08-19T02:43:48;25.45;;;15.40;;
73678;SDS011;61978;52.742;16.962;2022-08-19T02:46:17;21.70;;;15.72;;
73678;SDS011;61978;52.742;16.962;2022-08-19T02:48:47;20.25;;;14.15;;
73678;SDS011;61978;52.742;16.962;2022-08-19T02:51:20;24.30;;;15.83;;
73678;SDS011;61978;52.742;16.962;2022-08-19T02:56:15;19.15;;;15.45;;
73678;SDS011;61978;52.742;16.962;2022-08-19T02:58:42;20.17;;;15.35;;
73678;SDS011;61978;52.742;16.962;2022-08-19T03:01:10;21.75;;;15.55;;
73678;SDS011;61978;52.742;16.962;2022-08-19T03:03:40;21.95;;;16.05;;
73678;SDS011;61978;52.742;16.962;2022-08-19T03:06:09;25.20;;;16.67;;
73678;SDS011;61978;52.742;16.962;2022-08-19T03:08:39;21.02;;;16.35;;
73678;SDS011;61978;52.742;16.962;2022-08-19T03:16:20;23.60;;;17.17;;
73678;SDS011;61978;52.742;16.962;2022-08-19T03:18:49;18.55;;;15.58;;
73678;SDS011;61978;52.742;16.962;2022-08-19T03:21:16;18.45;;;14.80;;
73678;SDS011;61978;52.742;16.962;2022-08-19T03:23:45;22.15;;;15.60;;
73678;SDS011;61978;52.742;16.962;2022-08-19T03:26:12;20.20;;;15.28;;
73678;SDS011;61978;52.742;16.962;2022-08-19T03:28:41;23.32;;;17.17;;
73678;SDS011;61978;52.742;16.962;2022-08-19T03:31:13;23.90;;;15.45;;
73678;SDS011;61978;52.742;16.962;2022-08-19T03:33:41;22.32;;;16.35;;
73678;SDS011;61978;52.742;16.962;2022-08-19T03:36:10;21.02;;;16.70;;
73678;SDS011;61978;52.742;16.962;2022-08-19T03:38:43;20.75;;;16.30;;
73678;SDS011;61978;52.742;16.962;2022-08-19T03:41:17;21.10;;;15.93;;
73678;SDS011;61978;52.742;16.962;2022-08-19T03:43:46;19.95;;;15.30;;
73678;SDS011;61978;52.742;16.962;2022-08-19T03:46:15;23.30;;;16.55;;
73678;SDS011;61978;52.742;16.962;2022-08-19T03:48:43;23.70;;;17.00;;
73678;SDS011;61978;52.742;16.962;2022-08-19T03:51:17;25.05;;;17.80;;
73678;SDS011;61978;52.742;16.962;2022-08-19T03:53:52;25.65;;;18.45;;
73678;SDS011;61978;52.742;16.962;2022-08-19T03:56:20;23.80;;;17.45;;
73678;SDS011;61978;52.742;16.962;2022-08-19T03:58:48;26.60;;;17.07;;
73678;SDS011;61978;52.742;16.962;2022-08-19T04:01:16;23.40;;;17.45;;
73678;SDS011;61978;52.742;16.962;2022-08-19T04:03:45;19.82;;;16.70;;
73678;SDS011;61978;52.742;16.962;2022-08-19T04:08:49;23.77;;;17.07;;
73678;SDS011;61978;52.742;16.962;2022-08-19T04:11:18;21.93;;;17.52;;
73678;SDS011;61978;52.742;16.962;2022-08-19T04:13:47;24.07;;;17.15;;
73678;SDS011;61978;52.742;16.962;2022-08-19T04:16:14;22.40;;;16.50;;
73678;SDS011;61978;52.742;16.962;2022-08-19T04:18:41;19.82;;;17.45;;
73678;SDS011;61978;52.742;16.962;2022-08-19T04:21:08;21.10;;;17.00;;
73678;SDS011;61978;52.742;16.962;2022-08-19T04:23:36;21.65;;;16.95;;
73678;SDS011;61978;52.742;16.962;2022-08-19T04:26:03;22.40;;;15.60;;
73678;SDS011;61978;52.742;16.962;2022-08-19T04:28:30;22.15;;;17.00;;
73678;SDS011;61978;52.742;16.962;2022-08-19T04:30:56;19.77;;;16.70;;
73678;SDS011;61978;52.742;16.962;2022-08-19T04:33:24;18.27;;;14.85;;
73678;SDS011;61978;52.742;16.962;2022-08-19T04:35:51;23.62;;;15.63;;
73678;SDS011;61978;52.742;16.962;2022-08-19T04:38:19;19.12;;;15.13;;
73678;SDS011;61978;52.742;16.962;2022-08-19T04:40:51;25.32;;;16.23;;
73678;SDS011;61978;52.742;16.962;2022-08-19T04:43:37;25.12;;;17.02;;
73678;SDS011;61978;52.742;16.962;2022-08-19T04:46:05;24.87;;;15.60;;
73678;SDS011;61978;52.742;16.962;2022-08-19T04:48:33;17.25;;;14.55;;
73678;SDS011;61978;52.742;16.962;2022-08-19T04:51:01;22.85;;;14.58;;
73678;SDS011;61978;52.742;16.962;2022-08-19T04:53:31;16.93;;;15.18;;
73678;SDS011;61978;52.742;16.962;2022-08-19T04:55:59;20.20;;;14.75;;
73678;SDS011;61978;52.742;16.962;2022-08-19T04:58:29;19.10;;;16.25;;
73678;SDS011;61978;52.742;16.962;2022-08-19T05:00:56;16.75;;;14.80;;
73678;SDS011;61978;52.742;16.962;2022-08-19T05:03:22;16.45;;;14.10;;
73678;SDS011;61978;52.742;16.962;2022-08-19T05:05:48;21.73;;;15.15;;
73678;SDS011;61978;52.742;16.962;2022-08-19T05:08:17;18.23;;;15.43;;
73678;SDS011;61978;52.742;16.962;2022-08-19T05:10:47;19.42;;;13.38;;
73678;SDS011;61978;52.742;16.962;2022-08-19T05:13:15;22.93;;;14.98;;
73678;SDS011;61978;52.742;16.962;2022-08-19T05:15:43;18.23;;;13.93;;
73678;SDS011;61978;52.742;16.962;2022-08-19T05:18:10;14.83;;;13.20;;
73678;SDS011;61978;52.742;16.962;2022-08-19T05:20:55;14.90;;;13.18;;
73678;SDS011;61978;52.742;16.962;2022-08-19T05:23:40;16.32;;;13.62;;
73678;SDS011;61978;52.742;16.962;2022-08-19T05:26:06;20.55;;;13.78;;
73678;SDS011;61978;52.742;16.962;2022-08-19T05:28:34;16.45;;;12.53;;
73678;SDS011;61978;52.742;16.962;2022-08-19T05:31:01;15.20;;;13.10;;
73678;SDS011;61978;52.742;16.962;2022-08-19T05:33:28;17.75;;;13.32;;
73678;SDS011;61978;52.742;16.962;2022-08-19T05:35:56;18.77;;;14.13;;
73678;SDS011;61978;52.742;16.962;2022-08-19T05:38:22;15.08;;;11.75;;
73678;SDS011;61978;52.742;16.962;2022-08-19T05:40:52;17.35;;;12.55;;
73678;SDS011;61978;52.742;16.962;2022-08-19T05:43:18;20.90;;;13.58;;
73678;SDS011;61978;52.742;16.962;2022-08-19T05:45:45;19.05;;;12.85;;
73678;SDS011;61978;52.742;16.962;2022-08-19T05:48:12;16.00;;;13.68;;
73678;SDS011;61978;52.742;16.962;2022-08-19T05:50:39;18.65;;;12.70;;
73678;SDS011;61978;52.742;16.962;2022-08-19T05:53:07;15.53;;;12.03;;
73678;SDS011;61978;52.742;16.962;2022-08-19T05:55:34;17.07;;;12.43;;
73678;SDS011;61978;52.742;16.962;2022-08-19T05:58:04;19.55;;;11.43;;
73678;SDS011;61978;52.742;16.962;2022-08-19T06:00:33;21.17;;;11.90;;
73678;SDS011;61978;52.742;16.962;2022-08-19T06:03:01;14.30;;;11.05;;
73678;SDS011;61978;52.742;16.962;2022-08-19T06:05:32;16.67;;;11.03;;
73678;SDS011;61978;52.742;16.962;2022-08-19T06:07:57;18.45;;;12.45;;
73678;SDS011;61978;52.742;16.962;2022-08-19T06:10:26;16.52;;;11.55;;
73678;SDS011;61978;52.742;16.962;2022-08-19T06:12:53;22.75;;;13.22;;
73678;SDS011;61978;52.742;16.962;2022-08-19T06:15:21;18.25;;;11.53;;
73678;SDS011;61978;52.742;16.962;2022-08-19T06:17:50;13.60;;;10.95;;
73678;SDS011;61978;52.742;16.962;2022-08-19T06:20:17;11.93;;;9.78;;
73678;SDS011;61978;52.742;16.962;2022-08-19T06:22:45;15.03;;;10.15;;
73678;SDS011;61978;52.742;16.962;2022-08-19T06:25:15;12.60;;;9.83;;
73678;SDS011;61978;52.742;16.962;2022-08-19T06:27:42;13.75;;;9.18;;
73678;SDS011;61978;52.742;16.962;2022-08-19T06:30:11;16.60;;;9.75;;
73678;SDS011;61978;52.742;16.962;2022-08-19T06:32:38;12.23;;;9.63;;
73678;SDS011;61978;52.742;16.962;2022-08-19T06:35:05;17.35;;;8.88;;
73678;SDS011;61978;52.742;16.962;2022-08-19T06:37:33;11.28;;;8.68;;
73678;SDS011;61978;52.742;16.962;2022-08-19T06:39:59;16.32;;;8.85;;
73678;SDS011;61978;52.742;16.962;2022-08-19T06:42:26;13.50;;;8.10;;
73678;SDS011;61978;52.742;16.962;2022-08-19T06:44:53;11.48;;;8.25;;
73678;SDS011;61978;52.742;16.962;2022-08-19T06:47:21;11.15;;;8.73;;
73678;SDS011;61978;52.742;16.962;2022-08-19T06:49:47;9.28;;;7.72;;
73678;SDS011;61978;52.742;16.962;2022-08-19T06:52:14;10.70;;;7.05;;
73678;SDS011;61978;52.742;16.962;2022-08-19T06:54:42;10.25;;;7.55;;
73678;SDS011;61978;52.742;16.962;2022-08-19T06:57:09;10.78;;;9.35;;
73678;SDS011;61978;52.742;16.962;2022-08-19T06:59:38;16.48;;;8.60;;
73678;SDS011;61978;52.742;16.962;2022-08-19T07:02:05;21.40;;;9.18;;
73678;SDS011;61978;52.742;16.962;2022-08-19T07:04:34;14.38;;;7.45;;
73678;SDS011;61978;52.742;16.962;2022-08-19T07:07:08;12.88;;;7.97;;
73678;SDS011;61978;52.742;16.962;2022-08-19T07:09:39;10.23;;;8.35;;
73678;SDS011;61978;52.742;16.962;2022-08-19T07:12:09;10.98;;;8.40;;
73678;SDS011;61978;52.742;16.962;2022-08-19T07:14:39;13.40;;;8.98;;
73678;SDS011;61978;52.742;16.962;2022-08-19T07:17:07;13.80;;;8.40;;
73678;SDS011;61978;52.742;16.962;2022-08-19T07:19:36;10.05;;;8.30;;
73678;SDS011;61978;52.742;16.962;2022-08-19T07:22:05;12.58;;;7.90;;
73678;SDS011;61978;52.742;16.962;2022-08-19T07:24:33;11.63;;;7.60;;
73678;SDS011;61978;52.742;16.962;2022-08-19T07:27:01;12.03;;;8.58;;
73678;SDS011;61978;52.742;16.962;2022-08-19T07:29:29;10.72;;;7.50;;
73678;SDS011;61978;52.742;16.962;2022-08-19T07:31:59;12.43;;;7.33;;
73678;SDS011;61978;52.742;16.962;2022-08-19T07:34:29;10.72;;;7.97;;
73678;SDS011;61978;52.742;16.962;2022-08-19T07:36:57;14.50;;;8.13;;
73678;SDS011;61978;52.742;16.962;2022-08-19T07:39:25;13.00;;;8.13;;
73678;SDS011;61978;52.742;16.962;2022-08-19T07:41:54;10.08;;;8.45;;
73678;SDS011;61978;52.742;16.962;2022-08-19T07:44:24;16.12;;;7.80;;
73678;SDS011;61978;52.742;16.962;2022-08-19T07:46:52;16.50;;;7.80;;
73678;SDS011;61978;52.742;16.962;2022-08-19T07:49:22;12.30;;;7.75;;
73678;SDS011;61978;52.742;16.962;2022-08-19T07:51:55;13.20;;;8.03;;
73678;SDS011;61978;52.742;16.962;2022-08-19T07:54:22;13.53;;;7.90;;
73678;SDS011;61978;52.742;16.962;2022-08-19T07:56:52;14.18;;;8.85;;
73678;SDS011;61978;52.742;16.962;2022-08-19T07:59:19;13.75;;;9.18;;
73678;SDS011;61978;52.742;16.962;2022-08-19T08:01:48;12.75;;;8.03;;
73678;SDS011;61978;52.742;16.962;2022-08-19T08:04:16;19.45;;;8.93;;
73678;SDS011;61978;52.742;16.962;2022-08-19T08:07:02;12.05;;;8.85;;
73678;SDS011;61978;52.742;16.962;2022-08-19T08:09:48;13.25;;;8.30;;
73678;SDS011;61978;52.742;16.962;2022-08-19T08:12:30;10.25;;;8.68;;
73678;SDS011;61978;52.742;16.962;2022-08-19T08:14:56;10.58;;;8.25;;
73678;SDS011;61978;52.742;16.962;2022-08-19T08:17:27;13.32;;;8.48;;
73678;SDS011;61978;52.742;16.962;2022-08-19T08:19:55;15.35;;;7.92;;
73678;SDS011;61978;52.742;16.962;2022-08-19T08:22:25;16.45;;;9.28;;
73678;SDS011;61978;52.742;16.962;2022-08-19T08:25:11;15.13;;;8.58;;
73678;SDS011;61978;52.742;16.962;2022-08-19T08:27:40;10.70;;;7.40;;
73678;SDS011;61978;52.742;16.962;2022-08-19T08:30:11;18.65;;;9.60;;
73678;SDS011;61978;52.742;16.962;2022-08-19T08:32:42;18.00;;;9.17;;
73678;SDS011;61978;52.742;16.962;2022-08-19T08:35:11;15.70;;;8.80;;
73678;SDS011;61978;52.742;16.962;2022-08-19T08:37:42;9.55;;;8.28;;
73678;SDS011;61978;52.742;16.962;2022-08-19T08:43:01;15.20;;;8.85;;
73678;SDS011;61978;52.742;16.962;2022-08-19T08:45:36;11.03;;;8.28;;
73678;SDS011;61978;52.742;16.962;2022-08-19T08:48:10;11.90;;;8.78;;
73678;SDS011;61978;52.742;16.962;2022-08-19T08:50:41;12.95;;;8.73;;
73678;SDS011;61978;52.742;16.962;2022-08-19T08:53:12;13.18;;;8.10;;
73678;SDS011;61978;52.742;16.962;2022-08-19T08:55:42;13.90;;;9.45;;
73678;SDS011;61978;52.742;16.962;2022-08-19T08:58:24;12.85;;;7.53;;
73678;SDS011;61978;52.742;16.962;2022-08-19T09:00:46;13.83;;;9.35;;
73678;SDS011;61978;52.742;16.962;2022-08-19T09:03:24;14.00;;;9.35;;
73678;SDS011;61978;52.742;16.962;2022-08-19T09:06:00;19.10;;;10.28;;
73678;SDS011;61978;52.742;16.962;2022-08-19T09:08:35;16.48;;;9.48;;
73678;SDS011;61978;52.742;16.962;2022-08-19T09:11:10;12.85;;;9.23;;
73678;SDS011;61978;52.742;16.962;2022-08-19T09:16:13;13.80;;;10.00;;
73678;SDS011;61978;52.742;16.962;2022-08-19T09:18:47;15.98;;;9.80;;
73678;SDS011;61978;52.742;16.962;2022-08-19T09:21:18;10.72;;;8.38;;
73678;SDS011;61978;52.742;16.962;2022-08-19T09:23:46;13.38;;;9.75;;
73678;SDS011;61978;52.742;16.962;2022-08-19T09:26:14;14.20;;;9.75;;
73678;SDS011;61978;52.742;16.962;2022-08-19T09:28:43;14.58;;;9.45;;
73678;SDS011;61978;52.742;16.962;2022-08-19T09:31:11;19.12;;;9.98;;
73678;SDS011;61978;52.742;16.962;2022-08-19T09:33:40;12.35;;;10.25;;
73678;SDS011;61978;52.742;16.962;2022-08-19T09:36:10;10.75;;;9.65;;
73678;SDS011;61978;52.742;16.962;2022-08-19T09:38:39;12.47;;;9.28;;
73678;SDS011;61978;52.742;16.962;2022-08-19T09:41:08;14.23;;;9.48;;
73678;SDS011;61978;52.742;16.962;2022-08-19T09:43:41;13.70;;;9.68;;
73678;SDS011;61978;52.742;16.962;2022-08-19T09:46:10;16.27;;;10.05;;
73678;SDS011;61978;52.742;16.962;2022-08-19T09:48:40;10.70;;;8.95;;
73678;SDS011;61978;52.742;16.962;2022-08-19T09:51:09;14.70;;;9.03;;
73678;SDS011;61978;52.742;16.962;2022-08-19T09:53:39;14.43;;;9.90;;
73678;SDS011;61978;52.742;16.962;2022-08-19T09:56:06;12.88;;;9.35;;
73678;SDS011;61978;52.742;16.962;2022-08-19T09:58:34;14.07;;;10.48;;
73678;SDS011;61978;52.742;16.962;2022-08-19T10:01:03;17.95;;;10.20;;
73678;SDS011;61978;52.742;16.962;2022-08-19T10:03:31;16.42;;;9.98;;
73678;SDS011;61978;52.742;16.962;2022-08-19T10:06:01;15.55;;;10.60;;
73678;SDS011;61978;52.742;16.962;2022-08-19T10:08:31;15.65;;;10.32;;
73678;SDS011;61978;52.742;16.962;2022-08-19T10:11:00;17.07;;;10.78;;
73678;SDS011;61978;52.742;16.962;2022-08-19T10:13:29;16.30;;;10.32;;
73678;SDS011;61978;52.742;16.962;2022-08-19T10:16:05;15.43;;;10.40;;
73678;SDS011;61978;52.742;16.962;2022-08-19T10:18:34;14.18;;;10.13;;
73678;SDS011;61978;52.742;16.962;2022-08-19T10:21:06;19.20;;;10.18;;
73678;SDS011;61978;52.742;16.962;2022-08-19T10:23:37;23.02;;;10.60;;
73678;SDS011;61978;52.742;16.962;2022-08-19T10:26:08;15.28;;;10.98;;
73678;SDS011;61978;52.742;16.962;2022-08-19T10:28:36;20.60;;;10.72;;
73678;SDS011;61978;52.742;16.962;2022-08-19T10:31:10;15.15;;;9.63;;
73678;SDS011;61978;52.742;16.962;2022-08-19T10:33:41;16.42;;;11.68;;
73678;SDS011;61978;52.742;16.962;2022-08-19T10:36:15;14.28;;;11.25;;
73678;SDS011;61978;52.742;16.962;2022-08-19T10:38:43;25.57;;;11.45;;
73678;SDS011;61978;52.742;16.962;2022-08-19T10:41:14;14.85;;;10.03;;
73678;SDS011;61978;52.742;16.962;2022-08-19T10:43:47;14.75;;;10.32;;
73678;SDS011;61978;52.742;16.962;2022-08-19T10:46:23;20.15;;;10.80;;
73678;SDS011;61978;52.742;16.962;2022-08-19T10:48:55;19.92;;;10.72;;
73678;SDS011;61978;52.742;16.962;2022-08-19T10:51:25;38.73;;;12.00;;
73678;SDS011;61978;52.742;16.962;2022-08-19T10:54:10;14.15;;;10.08;;
73678;SDS011;61978;52.742;16.962;2022-08-19T10:56:37;18.17;;;10.55;;
73678;SDS011;61978;52.742;16.962;2022-08-19T10:59:21;13.78;;;9.23;;
73678;SDS011;61978;52.742;16.962;2022-08-19T11:01:54;17.85;;;8.70;;
73678;SDS011;61978;52.742;16.962;2022-08-19T11:04:25;11.03;;;8.90;;
73678;SDS011;61978;52.742;16.962;2022-08-19T11:07:02;14.85;;;9.45;;
73678;SDS011;61978;52.742;16.962;2022-08-19T11:09:29;17.12;;;10.18;;
73678;SDS011;61978;52.742;16.962;2022-08-19T11:11:56;12.18;;;9.65;;
73678;SDS011;61978;52.742;16.962;2022-08-19T11:14:24;15.43;;;8.38;;
73678;SDS011;61978;52.742;16.962;2022-08-19T11:16:51;13.80;;;8.35;;
73678;SDS011;61978;52.742;16.962;2022-08-19T11:19:22;16.37;;;8.78;;
73678;SDS011;61978;52.742;16.962;2022-08-19T11:21:50;9.65;;;8.68;;
73678;SDS011;61978;52.742;16.962;2022-08-19T11:24:20;18.23;;;8.35;;
73678;SDS011;61978;52.742;16.962;2022-08-19T11:26:50;14.53;;;8.85;;
73678;SDS011;61978;52.742;16.962;2022-08-19T11:29:20;13.93;;;6.90;;
73678;SDS011;61978;52.742;16.962;2022-08-19T11:31:48;11.35;;;7.45;;
73678;SDS011;61978;52.742;16.962;2022-08-19T11:34:17;13.60;;;8.40;;
73678;SDS011;61978;52.742;16.962;2022-08-19T11:36:48;12.18;;;6.12;;
73678;SDS011;61978;52.742;16.962;2022-08-19T11:39:19;18.48;;;8.08;;
73678;SDS011;61978;52.742;16.962;2022-08-19T11:41:48;13.18;;;6.45;;
73678;SDS011;61978;52.742;16.962;2022-08-19T11:44:16;14.35;;;6.53;;
73678;SDS011;61978;52.742;16.962;2022-08-19T11:46:44;10.40;;;6.58;;
73678;SDS011;61978;52.742;16.962;2022-08-19T11:49:14;12.30;;;7.50;;
73678;SDS011;61978;52.742;16.962;2022-08-19T11:51:45;16.27;;;6.92;;
73678;SDS011;61978;52.742;16.962;2022-08-19T11:54:16;10.43;;;6.75;;
73678;SDS011;61978;52.742;16.962;2022-08-19T11:56:44;10.35;;;5.92;;
73678;SDS011;61978;52.742;16.962;2022-08-19T11:59:13;17.17;;;7.05;;
73678;SDS011;61978;52.742;16.962;2022-08-19T12:01:40;14.30;;;6.97;;
73678;SDS011;61978;52.742;16.962;2022-08-19T12:04:08;10.58;;;6.62;;
73678;SDS011;61978;52.742;16.962;2022-08-19T12:06:36;8.70;;;6.70;;
73678;SDS011;61978;52.742;16.962;2022-08-19T12:09:07;9.75;;;6.28;;
73678;SDS011;61978;52.742;16.962;2022-08-19T12:11:37;12.35;;;6.85;;
73678;SDS011;61978;52.742;16.962;2022-08-19T12:14:04;7.50;;;5.40;;
73678;SDS011;61978;52.742;16.962;2022-08-19T12:16:33;11.63;;;7.22;;
73678;SDS011;61978;52.742;16.962;2022-08-19T12:19:01;9.03;;;6.55;;
73678;SDS011;61978;52.742;16.962;2022-08-19T12:21:31;10.53;;;7.50;;
73678;SDS011;61978;52.742;16.962;2022-08-19T12:24:02;12.93;;;7.10;;
73678;SDS011;61978;52.742;16.962;2022-08-19T12:26:30;18.17;;;7.03;;
73678;SDS011;61978;52.742;16.962;2022-08-19T12:28:58;10.63;;;7.60;;
73678;SDS011;61978;52.742;16.962;2022-08-19T12:31:27;14.15;;;8.55;;
73678;SDS011;61978;52.742;16.962;2022-08-19T12:33:56;14.98;;;7.90;;
73678;SDS011;61978;52.742;16.962;2022-08-19T12:36:25;18.98;;;8.10;;
73678;SDS011;61978;52.742;16.962;2022-08-19T12:38:52;15.03;;;8.08;;
73678;SDS011;61978;52.742;16.962;2022-08-19T12:41:19;18.52;;;7.87;;
73678;SDS011;61978;52.742;16.962;2022-08-19T12:43:48;10.72;;;7.37;;
73678;SDS011;61978;52.742;16.962;2022-08-19T12:46:15;14.50;;;7.90;;
73678;SDS011;61978;52.742;16.962;2022-08-19T12:48:43;12.28;;;7.60;;
73678;SDS011;61978;52.742;16.962;2022-08-19T12:51:15;9.73;;;7.28;;
73678;SDS011;61978;52.742;16.962;2022-08-19T12:53:45;17.02;;;7.65;;
73678;SDS011;61978;52.742;16.962;2022-08-19T12:56:13;11.48;;;7.50;;
73678;SDS011;61978;52.742;16.962;2022-08-19T12:58:41;17.35;;;6.58;;
73678;SDS011;61978;52.742;16.962;2022-08-19T13:01:09;10.98;;;7.15;;
73678;SDS011;61978;52.742;16.962;2022-08-19T13:03:38;14.63;;;7.47;;
73678;SDS011;61978;52.742;16.962;2022-08-19T13:06:06;12.03;;;6.75;;
73678;SDS011;61978;52.742;16.962;2022-08-19T13:08:33;9.00;;;7.00;;
73678;SDS011;61978;52.742;16.962;2022-08-19T13:11:07;8.15;;;5.92;;
73678;SDS011;61978;52.742;16.962;2022-08-19T13:13:38;8.88;;;6.25;;
73678;SDS011;61978;52.742;16.962;2022-08-19T13:16:09;18.48;;;7.75;;
73678;SDS011;61978;52.742;16.962;2022-08-19T13:18:38;10.60;;;6.28;;
73678;SDS011;61978;52.742;16.962;2022-08-19T13:21:08;15.13;;;7.10;;
73678;SDS011;61978;52.742;16.962;2022-08-19T13:23:38;7.95;;;7.00;;
73678;SDS011;61978;52.742;16.962;2022-08-19T13:26:06;10.88;;;6.85;;
73678;SDS011;61978;52.742;16.962;2022-08-19T13:28:35;14.70;;;6.70;;
73678;SDS011;61978;52.742;16.962;2022-08-19T13:31:21;9.40;;;7.03;;
73678;SDS011;61978;52.742;16.962;2022-08-19T13:34:07;12.18;;;7.72;;
73678;SDS011;61978;52.742;16.962;2022-08-19T13:36:35;11.83;;;6.42;;
73678;SDS011;61978;52.742;16.962;2022-08-19T13:39:04;14.55;;;7.70;;
73678;SDS011;61978;52.742;16.962;2022-08-19T13:41:35;11.53;;;7.80;;
73678;SDS011;61978;52.742;16.962;2022-08-19T13:44:03;14.93;;;8.85;;
73678;SDS011;61978;52.742;16.962;2022-08-19T13:46:32;13.93;;;8.63;;
73678;SDS011;61978;52.742;16.962;2022-08-19T13:48:59;13.55;;;9.40;;
73678;SDS011;61978;52.742;16.962;2022-08-19T13:51:26;11.55;;;9.58;;
73678;SDS011;61978;52.742;16.962;2022-08-19T13:53:53;20.50;;;10.25;;
73678;SDS011;61978;52.742;16.962;2022-08-19T13:56:22;12.03;;;10.10;;
73678;SDS011;61978;52.742;16.962;2022-08-19T13:58:49;15.53;;;9.70;;
73678;SDS011;61978;52.742;16.962;2022-08-19T14:01:20;14.20;;;8.80;;
73678;SDS011;61978;52.742;16.962;2022-08-19T14:03:49;19.25;;;10.08;;
73678;SDS011;61978;52.742;16.962;2022-08-19T14:06:16;13.83;;;10.18;;
73678;SDS011;61978;52.742;16.962;2022-08-19T14:08:42;17.17;;;9.78;;
73678;SDS011;61978;52.742;16.962;2022-08-19T14:11:09;29.63;;;10.78;;
73678;SDS011;61978;52.742;16.962;2022-08-19T14:13:39;15.95;;;10.15;;
73678;SDS011;61978;52.742;16.962;2022-08-19T14:16:06;12.95;;;10.08;;
73678;SDS011;61978;52.742;16.962;2022-08-19T14:18:36;23.02;;;11.05;;
73678;SDS011;61978;52.742;16.962;2022-08-19T14:21:05;12.18;;;9.23;;
73678;SDS011;61978;52.742;16.962;2022-08-19T14:23:34;19.67;;;10.53;;
73678;SDS011;61978;52.742;16.962;2022-08-19T14:26:06;12.82;;;9.95;;
73678;SDS011;61978;52.742;16.962;2022-08-19T14:28:35;16.02;;;9.55;;
73678;SDS011;61978;52.742;16.962;2022-08-19T14:31:02;17.42;;;10.00;;
73678;SDS011;61978;52.742;16.962;2022-08-19T14:33:29;23.52;;;10.10;;
73678;SDS011;61978;52.742;16.962;2022-08-19T14:35:56;21.45;;;10.75;;
73678;SDS011;61978;52.742;16.962;2022-08-19T14:38:24;19.42;;;11.10;;
73678;SDS011;61978;52.742;16.962;2022-08-19T14:40:52;14.98;;;11.73;;
73678;SDS011;61978;52.742;16.962;2022-08-19T14:43:20;14.30;;;12.40;;
73678;SDS011;61978;52.742;16.962;2022-08-19T14:45:48;23.18;;;12.53;;